Time;durP1;ratioP1;P1;durP2;ratioP2;P2;SDS_P1;SDS_P2;PMS_P1;PMS_P2;Temp;Humidity;BMP_temperature;BMP_pressure;BME280_temperature;BME280_humidity;BME280_pressure;Samples;Min_cycle;Max_cycle;Signal;HPM_P1;HPM_P2
2024/01/10 00:01:46;;;;;;;89.25;83.95;;;-4.80;99.90;;;;;;5071971;28;20032;-73
2024/01/10 00:04:11;;;;;;;86.90;81.70;;;-4.80;99.80;;;;;;5056403;28;20106;-73
2024/01/10 00:06:37;;;;;;;127.23;119.43;;;-4.80;99.70;;;;;;5068603;28;20039;-73
2024/01/10 00:09:03;;;;;;;103.60;97.27;;;-4.80;99.70;;;;;;5068122;28;20094;-73
2024/01/10 00:11:28;;;;;;;151.50;142.50;;;-4.90;99.80;;;;;;5065433;28;20083;-73
2024/01/10 00:13:59;;;;;;;85.23;80.03;;;-4.90;99.90;;;;;;5082651;28;20059;-74
2024/01/10 00:16:26;;;;;;;80.68;75.70;;;-4.90;99.70;;;;;;5068829;28;20043;-73
2024/01/10 00:18:52;;;;;;;61.45;57.42;;;-4.90;99.60;;;;;;5078402;28;20098;-74
2024/01/10 00:21:17;;;;;;;113.33;106.53;;;-4.90;99.40;;;;;;5075804;28;20422;-73
2024/01/10 00:23:43;;;;;;;103.97;97.70;;;-4.90;99.30;;;;;;5064427;28;20371;-73
2024/01/10 00:26:09;;;;;;;100.40;94.00;;;-4.90;99.20;;;;;;5065158;28;20035;-73
2024/01/10 00:28:35;;;;;;;73.00;68.53;;;-4.90;99.10;;;;;;5079583;28;20044;-74
2024/01/10 00:31:01;;;;;;;61.15;57.05;;;-4.90;99.00;;;;;;5080197;28;20127;-73
2024/01/10 00:33:26;;;;;;;56.40;52.70;;;-4.90;98.70;;;;;;5074686;28;20052;-73
2024/01/10 00:35:52;;;;;;;65.63;61.13;;;-5.00;98.60;;;;;;5063661;28;20449;-73
2024/01/10 00:38:18;;;;;;;52.77;48.83;;;-5.00;98.80;;;;;;5063389;28;20125;-73
2024/01/10 00:40:43;;;;;;;57.17;53.47;;;-5.00;98.90;;;;;;5075839;28;20036;-73
2024/01/10 00:43:09;;;;;;;115.93;108.70;;;-5.00;99.10;;;;;;5058879;28;21171;-73
2024/01/10 00:45:35;;;;;;;78.60;73.63;;;-5.00;98.90;;;;;;5069639;28;20405;-73
2024/01/10 00:48:01;;;;;;;87.67;82.10;;;-5.00;98.90;;;;;;5080374;28;20114;-72
2024/01/10 00:50:26;;;;;;;78.33;73.50;;;-5.00;99.00;;;;;;5072379;28;20051;-72
2024/01/10 00:52:52;;;;;;;97.93;91.93;;;-5.00;99.00;;;;;;5055123;28;20455;-73
2024/01/10 00:55:18;;;;;;;108.87;102.07;;;-5.10;99.00;;;;;;5078274;28;20091;-73
2024/01/10 00:57:43;;;;;;;81.03;75.60;;;-5.00;99.00;;;;;;5074551;28;20029;-73
2024/01/10 01:00:12;;;;;;;88.80;83.20;;;-5.10;98.70;;;;;;5077366;28;20041;-73
2024/01/10 01:02:41;;;;;;;74.97;70.18;;;-5.10;98.70;;;;;;5075303;28;20379;-74
2024/01/10 01:05:07;;;;;;;122.60;115.10;;;-5.10;98.90;;;;;;5060726;28;20354;-73
2024/01/10 01:07:33;;;;;;;104.30;97.85;;;-5.10;98.90;;;;;;5073353;28;20529;-72
2024/01/10 01:09:59;;;;;;;64.38;60.17;;;-5.10;99.10;;;;;;5081862;28;20051;-73
2024/01/10 01:12:25;;;;;;;93.22;87.28;;;-5.10;98.90;;;;;;5075384;28;20052;-73
2024/01/10 01:14:51;;;;;;;117.78;110.25;;;-5.10;98.90;;;;;;5073230;28;20410;-73
2024/01/10 01:17:17;;;;;;;135.80;127.57;;;-5.10;98.90;;;;;;5053100;28;20082;-73
2024/01/10 01:19:42;;;;;;;69.70;65.17;;;-5.10;98.80;;;;;;5062611;28;20475;-73
2024/01/10 01:22:08;;;;;;;88.13;82.70;;;-5.00;98.30;;;;;;5077436;28;20040;-73
2024/01/10 01:24:34;;;;;;;67.33;62.80;;;-4.90;97.90;;;;;;5073049;28;20072;-73
2024/01/10 01:26:59;;;;;;;85.97;80.50;;;-4.90;97.70;;;;;;5071455;28;20071;-73
2024/01/10 01:29:25;;;;;;;252.83;235.47;;;-4.90;97.60;;;;;;5071372;28;20045;-73
2024/01/10 01:31:52;;;;;;;72.73;67.70;;;-4.90;97.80;;;;;;5077063;28;20049;-74
2024/01/10 01:34:18;;;;;;;99.80;93.80;;;-4.90;97.60;;;;;;5053743;28;20041;-73
2024/01/10 01:36:43;;;;;;;85.57;80.27;;;-4.90;97.50;;;;;;5082461;28;20040;-73
2024/01/10 01:39:09;;;;;;;110.33;103.47;;;-4.90;97.50;;;;;;5064737;28;20117;-73
2024/01/10 01:41:35;;;;;;;75.83;70.73;;;-5.00;97.60;;;;;;5059645;28;20506;-73
2024/01/10 01:44:01;;;;;;;88.20;82.50;;;-5.00;97.60;;;;;;5071279;28;20454;-73
2024/01/10 01:46:28;;;;;;;136.03;127.50;;;-5.00;97.80;;;;;;5074499;28;20036;-73
2024/01/10 01:48:53;;;;;;;201.43;188.05;;;-5.10;98.00;;;;;;5053309;28;20565;-74
2024/01/10 01:51:21;;;;;;;75.07;70.20;;;-5.00;97.80;;;;;;5079451;28;20056;-73
2024/01/10 01:53:49;;;;;;;80.95;75.65;;;-5.00;97.50;;;;;;5076039;28;20075;-73
2024/01/10 01:56:15;;;;;;;131.57;122.63;;;-5.00;97.30;;;;;;5063029;28;20044;-73
2024/01/10 01:58:43;;;;;;;173.43;161.88;;;-5.00;97.70;;;;;;5075323;28;20461;-73
2024/01/10 02:01:11;;;;;;;127.15;118.85;;;-4.90;97.60;;;;;;5077111;28;20032;-74
2024/01/10 02:03:37;;;;;;;100.75;94.20;;;-4.90;97.40;;;;;;5080470;28;20040;-73
2024/01/10 02:06:03;;;;;;;77.13;72.13;;;-4.90;97.20;;;;;;5073192;28;20051;-74
2024/01/10 02:08:33;;;;;;;85.47;79.63;;;-5.00;97.40;;;;;;5076755;28;20051;-72
2024/01/10 02:11:00;;;;;;;92.57;86.28;;;-5.00;97.50;;;;;;5072906;28;20052;-72
2024/01/10 02:13:27;;;;;;;131.52;123.30;;;-5.00;97.40;;;;;;5075678;28;20040;-73
2024/01/10 02:15:54;;;;;;;83.63;78.07;;;-5.00;97.50;;;;;;5067890;28;20047;-73
2024/01/10 02:18:19;;;;;;;230.02;213.43;;;-5.00;97.50;;;;;;5085949;28;20082;-73
2024/01/10 02:20:45;;;;;;;117.10;109.80;;;-5.00;98.00;;;;;;5071510;28;20489;-73
2024/01/10 02:23:13;;;;;;;75.25;70.13;;;-5.00;97.90;;;;;;5071836;28;20401;-74
2024/01/10 02:25:42;;;;;;;156.43;146.90;;;-5.00;97.90;;;;;;5055109;28;20482;-73
2024/01/10 02:28:09;;;;;;;90.00;84.30;;;-5.00;98.10;;;;;;5057611;28;20351;-73
2024/01/10 02:30:35;;;;;;;142.70;133.85;;;-5.00;97.90;;;;;;5077140;28;20059;-73
2024/01/10 02:33:01;;;;;;;162.93;152.85;;;-5.00;97.90;;;;;;5081082;28;20047;-73
2024/01/10 02:35:27;;;;;;;112.30;105.47;;;-5.00;98.00;;;;;;5061179;28;20399;-74
2024/01/10 02:37:54;;;;;;;85.03;79.40;;;-5.00;98.10;;;;;;5056030;28;20493;-74
2024/01/10 02:40:20;;;;;;;244.02;226.80;;;-5.00;97.90;;;;;;5061785;28;20040;-73
2024/01/10 02:42:46;;;;;;;69.85;65.03;;;-5.10;98.00;;;;;;5065240;28;20102;-73
2024/01/10 02:45:12;;;;;;;87.93;82.27;;;-5.00;97.90;;;;;;5072660;28;20104;-74
2024/01/10 02:47:38;;;;;;;86.10;80.32;;;-5.10;97.90;;;;;;5060033;28;21254;-74
2024/01/10 02:50:05;;;;;;;87.97;82.07;;;-5.00;97.80;;;;;;5081434;28;20032;-74
2024/01/10 02:52:31;;;;;;;136.70;128.52;;;-5.00;97.70;;;;;;5074163;28;20049;-73
2024/01/10 02:54:56;;;;;;;85.20;79.67;;;-5.00;97.90;;;;;;5077880;28;20128;-74
2024/01/10 02:57:22;;;;;;;74.43;69.43;;;-5.00;97.80;;;;;;5053523;28;20494;-73
2024/01/10 02:59:48;;;;;;;62.87;58.43;;;-5.00;97.40;;;;;;5074037;28;20029;-73
2024/01/10 03:02:14;;;;;;;71.85;67.15;;;-5.00;97.20;;;;;;5057415;28;20043;-74
2024/01/10 03:04:41;;;;;;;107.73;100.67;;;-5.00;97.20;;;;;;5071942;28;20127;-74
2024/01/10 03:07:07;;;;;;;73.55;68.25;;;-5.00;97.00;;;;;;5075263;28;20047;-74
2024/01/10 03:09:32;;;;;;;77.40;72.07;;;-5.00;96.80;;;;;;5078443;28;20032;-74
2024/01/10 03:11:58;;;;;;;101.57;94.77;;;-5.00;96.70;;;;;;5056444;28;20105;-74
2024/01/10 03:14:24;;;;;;;63.57;58.90;;;-5.00;96.90;;;;;;5068768;28;20055;-73
2024/01/10 03:16:49;;;;;;;78.17;72.90;;;-5.00;96.80;;;;;;5077821;28;20032;-74
2024/01/10 03:19:15;;;;;;;79.50;74.10;;;-5.00;96.70;;;;;;5055644;28;20039;-73
2024/01/10 03:21:41;;;;;;;115.00;107.53;;;-5.00;96.40;;;;;;5074659;28;20111;-74
2024/01/10 03:24:07;;;;;;;155.97;145.77;;;-5.00;96.30;;;;;;5059158;28;20469;-73
2024/01/10 03:26:34;;;;;;;82.78;77.43;;;-5.00;96.10;;;;;;5051848;28;20059;-73
2024/01/10 03:29:00;;;;;;;104.95;98.25;;;-5.00;96.10;;;;;;5077304;28;20542;-73
2024/01/10 03:31:28;;;;;;;116.18;108.60;;;-4.90;95.70;;;;;;5070236;28;20040;-74
2024/01/10 03:33:53;;;;;;;166.20;155.65;;;-4.90;95.20;;;;;;5057438;28;20071;-73
2024/01/10 03:36:19;;;;;;;70.43;65.53;;;-4.90;94.80;;;;;;5077442;28;20514;-74
2024/01/10 03:38:45;;;;;;;108.97;102.43;;;-4.90;94.30;;;;;;5066814;28;20440;-73
2024/01/10 03:41:17;;;;;;;92.37;86.57;;;-4.90;94.20;;;;;;5084851;28;20452;-74
2024/01/10 03:43:44;;;;;;;79.53;74.35;;;-5.00;94.10;;;;;;5067203;28;20490;-74
2024/01/10 03:46:11;;;;;;;127.10;118.93;;;-5.00;94.50;;;;;;5084806;28;20052;-73
2024/01/10 03:48:37;;;;;;;148.57;139.45;;;-5.00;94.60;;;;;;5078856;28;20478;-73
2024/01/10 03:51:03;;;;;;;92.05;86.20;;;-5.00;94.80;;;;;;5083698;28;20044;-73
2024/01/10 03:53:28;;;;;;;149.40;140.27;;;-5.00;94.60;;;;;;5081581;28;20040;-73
2024/01/10 03:55:54;;;;;;;148.33;139.27;;;-5.00;94.50;;;;;;5073868;28;20301;-74
2024/01/10 03:58:20;;;;;;;78.60;73.13;;;-5.00;94.50;;;;;;5084356;28;20054;-74
2024/01/10 04:00:46;;;;;;;75.63;70.45;;;-5.00;94.40;;;;;;5076398;28;20425;-73
2024/01/10 04:03:12;;;;;;;78.53;73.03;;;-5.00;94.50;;;;;;5078257;28;20039;-74
2024/01/10 04:05:37;;;;;;;90.97;85.13;;;-5.00;94.50;;;;;;5075004;28;20051;-73
2024/01/10 04:08:03;;;;;;;98.43;91.87;;;-5.00;94.50;;;;;;5083042;28;20036;-73
2024/01/10 04:10:29;;;;;;;130.85;122.35;;;-5.10;94.60;;;;;;5079523;28;20040;-74
2024/01/10 04:12:55;;;;;;;81.93;76.13;;;-5.10;94.80;;;;;;5066857;28;20370;-73
2024/01/10 04:15:21;;;;;;;73.80;68.75;;;-5.10;95.00;;;;;;5079064;28;20044;-73
2024/01/10 04:17:47;;;;;;;89.37;83.40;;;-5.10;95.00;;;;;;5075253;28;20481;-74
2024/01/10 04:20:13;;;;;;;77.93;72.20;;;-5.00;94.90;;;;;;5083879;28;20393;-73
2024/01/10 04:22:39;;;;;;;85.00;79.23;;;-5.10;94.90;;;;;;5057820;28;20343;-73
2024/01/10 04:25:06;;;;;;;82.47;76.90;;;-5.10;94.90;;;;;;5074915;28;20032;-74
2024/01/10 04:27:32;;;;;;;128.10;119.78;;;-5.10;95.20;;;;;;5069535;28;20040;-74
2024/01/10 04:29:58;;;;;;;74.93;69.73;;;-5.10;95.30;;;;;;5072560;28;20505;-73
2024/01/10 04:32:24;;;;;;;76.70;71.57;;;-5.10;95.50;;;;;;5053374;28;20052;-73
2024/01/10 04:34:49;;;;;;;80.13;74.70;;;-5.10;95.30;;;;;;5080167;28;20393;-73
2024/01/10 04:37:16;;;;;;;103.00;96.30;;;-5.10;95.30;;;;;;5063951;28;20059;-73
2024/01/10 04:39:42;;;;;;;100.15;93.60;;;-5.20;95.40;;;;;;5079632;28;20048;-73
2024/01/10 04:42:10;;;;;;;93.93;87.63;;;-5.20;95.60;;;;;;5080784;28;20043;-73
2024/01/10 04:44:37;;;;;;;97.35;90.75;;;-5.20;95.70;;;;;;5057568;28;20048;-73
2024/01/10 04:47:03;;;;;;;88.18;82.20;;;-5.20;95.70;;;;;;5057698;28;20545;-73
2024/01/10 04:49:29;;;;;;;133.15;124.22;;;-5.20;95.80;;;;;;5054935;28;20044;-73
2024/01/10 04:51:55;;;;;;;98.67;91.90;;;-5.20;95.70;;;;;;5074451;28;20028;-73
2024/01/10 04:54:20;;;;;;;86.03;80.23;;;-5.20;95.60;;;;;;5076524;28;20445;-73
2024/01/10 04:56:46;;;;;;;66.73;61.93;;;-5.20;95.60;;;;;;5075201;28;20287;-73
2024/01/10 04:59:12;;;;;;;150.13;140.45;;;-5.30;95.70;;;;;;5069060;28;20044;-73
2024/01/10 05:01:38;;;;;;;113.10;105.90;;;-5.30;96.00;;;;;;5075382;28;20071;-74
2024/01/10 05:04:04;;;;;;;147.43;137.97;;;-5.30;95.90;;;;;;5068655;28;20115;-74
2024/01/10 05:06:30;;;;;;;82.87;77.23;;;-5.30;95.70;;;;;;5060642;28;20036;-73
2024/01/10 05:08:58;;;;;;;74.15;69.00;;;-5.30;95.70;;;;;;5080587;28;20031;-74
2024/01/10 05:11:25;;;;;;;124.32;116.20;;;-5.30;95.70;;;;;;5062556;28;20117;-74
2024/01/10 05:13:52;;;;;;;81.38;75.90;;;-5.30;96.00;;;;;;5070882;28;20047;-73
2024/01/10 05:16:17;;;;;;;78.00;72.68;;;-5.30;95.90;;;;;;5078908;28;20032;-73
2024/01/10 05:18:43;;;;;;;97.73;91.23;;;-5.30;95.80;;;;;;5056167;28;20035;-73
2024/01/10 05:21:09;;;;;;;99.83;93.33;;;-5.30;96.00;;;;;;5067345;28;20111;-73
2024/01/10 05:23:35;;;;;;;100.47;93.90;;;-5.30;95.90;;;;;;5075854;28;20306;-73
2024/01/10 05:26:01;;;;;;;81.18;75.75;;;-5.40;96.00;;;;;;5061673;28;20044;-73
2024/01/10 05:28:27;;;;;;;94.33;87.73;;;-5.40;96.00;;;;;;5060969;28;20491;-73
2024/01/10 05:30:53;;;;;;;80.60;75.30;;;-5.40;96.40;;;;;;5082993;28;20405;-73
2024/01/10 05:33:20;;;;;;;98.07;91.80;;;-5.40;96.30;;;;;;5052008;28;20072;-73
2024/01/10 05:35:45;;;;;;;128.80;120.18;;;-5.40;96.20;;;;;;5078574;28;20103;-73
2024/01/10 05:38:11;;;;;;;99.78;93.28;;;-5.50;96.40;;;;;;5077566;28;20063;-73
2024/01/10 05:40:37;;;;;;;106.15;99.32;;;-5.50;96.60;;;;;;5082579;28;20028;-73
2024/01/10 05:43:03;;;;;;;93.17;87.03;;;-5.50;96.70;;;;;;5074426;28;21973;-73
2024/01/10 05:45:29;;;;;;;89.67;83.57;;;-5.40;96.70;;;;;;5077942;28;20074;-73
2024/01/10 05:47:55;;;;;;;174.73;163.23;;;-5.40;96.20;;;;;;5072155;28;20044;-73
2024/01/10 05:50:21;;;;;;;87.93;81.78;;;-5.40;96.20;;;;;;5068948;28;20434;-73
2024/01/10 05:52:50;;;;;;;84.85;79.15;;;-5.40;95.90;;;;;;5056614;28;20039;-73
2024/01/10 05:55:15;;;;;;;97.28;90.65;;;-5.40;95.90;;;;;;5073263;28;20527;-73
2024/01/10 05:57:42;;;;;;;91.03;84.83;;;-5.40;95.70;;;;;;5072832;28;20083;-73
2024/01/10 06:00:09;;;;;;;75.15;70.13;;;-5.40;95.50;;;;;;5080840;28;20040;-74
2024/01/10 06:02:39;;;;;;;91.80;85.57;;;-5.40;95.60;;;;;;5083485;28;20047;-73
2024/01/10 06:05:07;;;;;;;76.00;70.68;;;-5.40;95.90;;;;;;5073412;28;20165;-73
2024/01/10 06:07:32;;;;;;;90.88;84.90;;;-5.40;95.90;;;;;;5071066;28;20055;-73
2024/01/10 06:09:58;;;;;;;81.23;75.53;;;-5.40;96.10;;;;;;5078416;28;20028;-73
2024/01/10 06:12:25;;;;;;;96.47;90.03;;;-5.50;96.00;;;;;;5055202;28;20106;-73
2024/01/10 06:14:50;;;;;;;98.07;91.53;;;-5.50;96.20;;;;;;5078751;28;20083;-73
2024/01/10 06:17:16;;;;;;;156.67;146.43;;;-5.50;96.40;;;;;;5075013;28;20040;-73
2024/01/10 06:19:42;;;;;;;111.13;103.57;;;-5.50;96.50;;;;;;5080400;28;20059;-73
2024/01/10 06:22:08;;;;;;;131.43;123.03;;;-5.50;96.50;;;;;;5078514;28;20028;-73
2024/01/10 06:24:33;;;;;;;71.00;65.77;;;-5.50;96.70;;;;;;5079675;28;20032;-73
2024/01/10 06:26:59;;;;;;;72.33;67.03;;;-5.50;96.90;;;;;;5080819;28;20090;-73
2024/01/10 06:29:25;;;;;;;141.83;132.20;;;-5.50;96.70;;;;;;5059708;28;20410;-73
2024/01/10 06:31:50;;;;;;;94.53;88.30;;;-5.50;96.70;;;;;;5072396;28;20067;-73
2024/01/10 06:34:16;;;;;;;85.37;79.60;;;-5.50;96.80;;;;;;5056064;28;20052;-73
2024/01/10 06:36:42;;;;;;;103.13;96.47;;;-5.50;96.70;;;;;;5072015;28;20063;-73
2024/01/10 06:39:12;;;;;;;99.13;92.47;;;-5.40;96.80;;;;;;5056538;28;20034;-73
2024/01/10 06:41:38;;;;;;;66.25;61.38;;;-5.40;96.90;;;;;;5056321;28;20071;-73
2024/01/10 06:44:04;;;;;;;127.03;118.22;;;-5.40;96.60;;;;;;5072367;28;20024;-73
2024/01/10 06:46:31;;;;;;;69.40;64.63;;;-5.40;96.60;;;;;;5076610;28;20310;-73
2024/01/10 06:48:59;;;;;;;73.93;68.60;;;-5.40;96.50;;;;;;5082293;28;20540;-73
2024/01/10 06:51:26;;;;;;;84.28;78.82;;;-5.40;96.30;;;;;;5078891;28;20494;-73
2024/01/10 06:53:52;;;;;;;94.78;88.43;;;-5.50;96.20;;;;;;5072072;28;20456;-73
2024/01/10 06:56:18;;;;;;;73.80;68.63;;;-5.50;96.20;;;;;;5074442;28;20044;-73
2024/01/10 06:58:44;;;;;;;77.23;71.93;;;-5.40;96.40;;;;;;5073183;28;20139;-73
2024/01/10 07:01:13;;;;;;;82.10;76.40;;;-5.40;96.30;;;;;;5072632;28;20035;-73
2024/01/10 07:03:40;;;;;;;178.35;166.23;;;-5.50;96.10;;;;;;5055515;28;20039;-73
2024/01/10 07:06:05;;;;;;;84.55;78.57;;;-5.50;96.40;;;;;;5073136;28;20044;-73
2024/01/10 07:08:31;;;;;;;96.33;89.97;;;-5.40;96.30;;;;;;5075933;28;20327;-73
2024/01/10 07:10:57;;;;;;;76.20;70.80;;;-5.40;96.30;;;;;;5074478;28;20068;-73
2024/01/10 07:13:23;;;;;;;95.07;88.80;;;-5.40;96.30;;;;;;5074500;28;20083;-73
2024/01/10 07:15:51;;;;;;;132.27;123.78;;;-5.40;96.20;;;;;;5078024;28;20305;-73
2024/01/10 07:18:17;;;;;;;76.65;71.32;;;-5.40;96.50;;;;;;5075708;28;20111;-73
2024/01/10 07:20:42;;;;;;;75.90;70.32;;;-5.40;96.50;;;;;;5077824;28;20032;-73
2024/01/10 07:23:08;;;;;;;76.17;70.73;;;-5.40;96.30;;;;;;5079033;28;20093;-72
2024/01/10 07:25:34;;;;;;;80.93;75.50;;;-5.50;96.50;;;;;;5056766;28;20046;-73
2024/01/10 07:28:00;;;;;;;84.37;78.60;;;-5.50;96.60;;;;;;5081106;28;20044;-73
2024/01/10 07:30:26;;;;;;;76.00;70.50;;;-5.50;96.70;;;;;;5075035;28;20044;-73
2024/01/10 07:32:52;;;;;;;65.53;60.47;;;-5.50;96.70;;;;;;5052074;28;20169;-73
2024/01/10 07:35:18;;;;;;;89.40;83.37;;;-5.50;96.80;;;;;;5068121;28;20127;-73
2024/01/10 07:37:44;;;;;;;119.93;111.97;;;-5.50;97.00;;;;;;5072721;28;20487;-73
2024/01/10 07:40:13;;;;;;;131.75;122.93;;;-5.50;97.00;;;;;;5069800;28;20044;-73
2024/01/10 07:42:39;;;;;;;85.82;79.78;;;-5.50;96.90;;;;;;5051894;28;20094;-73
2024/01/10 07:45:05;;;;;;;77.07;71.60;;;-5.50;96.70;;;;;;5073803;28;20048;-73
2024/01/10 07:47:34;;;;;;;77.20;71.43;;;-5.50;96.70;;;;;;5074368;28;20104;-72
2024/01/10 07:49:59;;;;;;;70.93;65.85;;;-5.50;96.60;;;;;;5075463;28;20037;-73
2024/01/10 07:52:25;;;;;;;146.07;135.80;;;-5.50;96.80;;;;;;5058025;28;20050;-73
2024/01/10 07:54:51;;;;;;;91.90;85.67;;;-5.40;97.00;;;;;;5062587;28;20379;-73
2024/01/10 07:57:18;;;;;;;78.53;72.87;;;-5.40;96.90;;;;;;5074850;28;21015;-73
2024/01/10 07:59:47;;;;;;;98.00;91.45;;;-5.40;96.70;;;;;;5069160;28;20162;-73
2024/01/10 08:02:12;;;;;;;89.47;83.30;;;-5.40;96.80;;;;;;5050609;28;20072;-73
2024/01/10 08:04:38;;;;;;;63.73;58.80;;;-5.40;96.90;;;;;;5064506;28;20120;-73
2024/01/10 08:07:04;;;;;;;77.43;72.00;;;-5.40;96.90;;;;;;5082250;28;20035;-73
2024/01/10 08:09:30;;;;;;;107.37;100.33;;;-5.40;96.90;;;;;;5062999;28;20040;-73
2024/01/10 08:11:55;;;;;;;85.97;80.17;;;-5.40;97.00;;;;;;5079733;28;20217;-73
2024/01/10 08:14:21;;;;;;;77.00;71.63;;;-5.40;96.80;;;;;;5087527;28;20051;-73
2024/01/10 08:16:47;;;;;;;89.43;83.43;;;-5.40;96.50;;;;;;5089567;28;20063;-74
2024/01/10 08:19:12;;;;;;;87.03;81.23;;;-5.30;96.50;;;;;;5082893;28;20354;-73
2024/01/10 08:21:38;;;;;;;74.43;69.23;;;-5.30;96.20;;;;;;5070411;28;20040;-73
2024/01/10 08:24:05;;;;;;;122.57;114.73;;;-5.20;95.50;;;;;;5087318;28;20133;-73
2024/01/10 08:26:31;;;;;;;81.57;75.90;;;-5.20;95.20;;;;;;5079022;28;20055;-73
2024/01/10 08:28:57;;;;;;;85.68;79.53;;;-5.20;95.50;;;;;;5054095;28;20044;-73
2024/01/10 08:31:23;;;;;;;154.30;144.47;;;-5.10;95.70;;;;;;5059447;28;20047;-73
2024/01/10 08:33:49;;;;;;;95.00;88.60;;;-4.90;95.90;;;;;;5075945;28;20834;-73
2024/01/10 08:36:15;;;;;;;93.88;87.32;;;-4.70;95.80;;;;;;5076220;28;20045;-73
2024/01/10 08:38:41;;;;;;;123.05;114.93;;;-4.50;95.10;;;;;;5054634;28;20056;-73
2024/01/10 08:41:11;;;;;;;94.88;88.75;;;-4.30;94.30;;;;;;5080118;28;20028;-73
2024/01/10 08:43:41;;;;;;;114.20;106.72;;;-4.00;93.20;;;;;;5071651;28;20171;-73
2024/01/10 08:46:09;;;;;;;120.18;112.68;;;-4.00;92.40;;;;;;5079015;28;20051;-73
2024/01/10 08:48:36;;;;;;;123.38;115.72;;;-4.00;91.40;;;;;;5080648;28;20040;-73
2024/01/10 08:51:02;;;;;;;123.35;115.25;;;-4.10;91.30;;;;;;5065775;28;20079;-73
2024/01/10 08:53:28;;;;;;;109.55;102.75;;;-4.20;90.60;;;;;;5081874;28;20123;-72
2024/01/10 08:55:54;;;;;;;212.13;196.63;;;-4.20;91.00;;;;;;5071163;28;20147;-73
2024/01/10 08:58:20;;;;;;;123.78;116.05;;;-4.10;90.50;;;;;;5071910;28;20036;-73
2024/01/10 09:00:46;;;;;;;123.90;115.78;;;-4.00;89.80;;;;;;5063412;28;20093;-73
2024/01/10 09:03:12;;;;;;;171.13;160.90;;;-3.90;88.70;;;;;;5083677;28;20024;-73
2024/01/10 09:05:38;;;;;;;270.58;253.13;;;-3.90;88.00;;;;;;5064696;28;20043;-73
2024/01/10 09:08:04;;;;;;;270.00;253.40;;;-3.90;88.20;;;;;;5059592;28;20043;-74
2024/01/10 09:10:29;;;;;;;202.23;190.13;;;-3.90;87.80;;;;;;5061565;28;20481;-74
2024/01/10 09:12:55;;;;;;;340.27;316.40;;;-4.00;88.00;;;;;;5082018;28;20043;-74
2024/01/10 09:15:21;;;;;;;244.88;229.48;;;-4.10;88.20;;;;;;5063622;28;20079;-73
2024/01/10 09:17:47;;;;;;;294.97;275.67;;;-4.10;87.60;;;;;;5063139;28;20089;-74
2024/01/10 09:20:13;;;;;;;244.10;229.80;;;-4.10;87.70;;;;;;5068655;28;20043;-73
2024/01/10 09:22:39;;;;;;;257.05;240.00;;;-4.10;87.70;;;;;;5079267;28;20029;-73
2024/01/10 09:25:05;;;;;;;285.77;267.88;;;-4.10;87.90;;;;;;5074613;28;20043;-73
2024/01/10 09:27:33;;;;;;;353.50;327.02;;;-4.10;87.90;;;;;;5056939;28;20279;-73
2024/01/10 09:30:01;;;;;;;154.57;144.77;;;-4.10;87.30;;;;;;5059786;28;20048;-73
2024/01/10 09:32:28;;;;;;;234.80;219.90;;;-4.10;87.00;;;;;;5073072;28;20036;-74
2024/01/10 09:34:54;;;;;;;227.10;213.32;;;-4.00;88.00;;;;;;5080531;28;20505;-73
2024/01/10 09:37:20;;;;;;;231.13;217.38;;;-4.00;87.30;;;;;;5074230;28;20051;-74
2024/01/10 09:39:46;;;;;;;258.03;241.77;;;-4.00;87.30;;;;;;5075915;28;20437;-74
2024/01/10 09:42:12;;;;;;;205.33;193.50;;;-3.90;87.10;;;;;;5070937;28;20036;-72
2024/01/10 09:44:38;;;;;;;174.35;164.35;;;-3.90;86.70;;;;;;5070480;28;20375;-74
2024/01/10 09:47:05;;;;;;;214.23;201.83;;;-3.90;87.00;;;;;;5073094;28;20649;-74
2024/01/10 09:49:30;;;;;;;266.33;251.38;;;-3.90;86.40;;;;;;5057873;28;20131;-74
2024/01/10 09:52:01;;;;;;;228.53;214.47;;;-3.80;86.50;;;;;;5074976;28;20181;-74
2024/01/10 09:54:29;;;;;;;262.85;245.90;;;-3.80;86.50;;;;;;5080152;28;20742;-74
2024/01/10 09:56:56;;;;;;;254.27;238.57;;;-3.80;86.00;;;;;;5066546;28;20082;-74
2024/01/10 09:59:22;;;;;;;353.63;323.90;;;-3.70;85.00;;;;;;5069801;28;20043;-74
2024/01/10 10:01:47;;;;;;;276.60;258.50;;;-3.70;84.40;;;;;;5076950;28;20250;-74
2024/01/10 10:04:15;;;;;;;213.67;200.37;;;-3.70;85.00;;;;;;5072605;28;20048;-74
2024/01/10 10:06:40;;;;;;;271.45;253.48;;;-3.60;84.60;;;;;;5069872;28;20048;-75
2024/01/10 10:09:07;;;;;;;335.33;311.80;;;-3.60;85.10;;;;;;5079604;28;20043;-74
2024/01/10 10:11:33;;;;;;;295.48;276.13;;;-3.60;85.40;;;;;;5056595;28;20125;-75
2024/01/10 10:14:14;;;;;;;206.70;194.17;;;-3.60;85.40;;;;;;5052151;28;20068;-75
2024/01/10 10:16:41;;;;;;;245.68;230.68;;;-3.50;84.80;;;;;;5069002;28;20044;-74
2024/01/10 10:19:06;;;;;;;288.25;269.38;;;-3.50;84.30;;;;;;5075887;28;20113;-75
2024/01/10 10:21:33;;;;;;;303.70;281.53;;;-3.50;84.40;;;;;;5059604;28;20068;-75
2024/01/10 10:24:01;;;;;;;209.75;196.27;;;-3.40;84.60;;;;;;5085756;28;20401;-75
2024/01/10 10:26:29;;;;;;;424.35;389.38;;;-3.40;84.70;;;;;;5087513;28;20048;-76
2024/01/10 10:28:55;;;;;;;242.95;227.50;;;-3.30;84.60;;;;;;5073769;28;20650;-75
2024/01/10 10:31:23;;;;;;;220.52;206.70;;;-3.30;84.40;;;;;;5058589;28;20131;-75
2024/01/10 10:33:53;;;;;;;227.35;212.25;;;-3.20;84.60;;;;;;5074070;28;20072;-75
2024/01/10 10:36:20;;;;;;;231.48;215.43;;;-3.20;83.50;;;;;;5071696;28;20049;-76
2024/01/10 10:38:49;;;;;;;141.20;131.68;;;-3.20;84.40;;;;;;5073111;28;20047;-75
2024/01/10 10:41:15;;;;;;;205.65;192.15;;;-3.20;83.50;;;;;;5074965;28;20130;-75
2024/01/10 10:43:41;;;;;;;228.52;213.73;;;-3.10;84.10;;;;;;5079755;28;20047;-76
2024/01/10 10:46:09;;;;;;;313.70;292.98;;;-3.10;84.00;;;;;;5072234;28;20055;-75
2024/01/10 10:48:36;;;;;;;181.88;170.68;;;-3.00;83.40;;;;;;5058771;28;20052;-75
2024/01/10 10:51:08;;;;;;;156.13;146.65;;;-3.00;82.20;;;;;;5052902;28;20089;-75
2024/01/10 10:53:40;;;;;;;206.93;193.30;;;-3.00;81.70;;;;;;5054788;28;20051;-75
2024/01/10 10:56:07;;;;;;;162.98;153.23;;;-2.90;81.60;;;;;;5061990;28;20051;-75
2024/01/10 10:58:39;;;;;;;222.63;208.13;;;-2.90;81.70;;;;;;5062715;28;20046;-75
2024/01/10 11:01:06;;;;;;;98.07;91.60;;;-2.90;81.00;;;;;;5065426;28;20574;-75
2024/01/10 11:03:34;;;;;;;212.60;198.30;;;-2.80;81.50;;;;;;5053323;28;20335;-75
2024/01/10 11:06:02;;;;;;;141.35;132.45;;;-2.80;82.40;;;;;;5053741;28;20567;-75
2024/01/10 11:08:28;;;;;;;132.85;124.53;;;-2.70;80.70;;;;;;5072635;28;20059;-75
2024/01/10 11:10:56;;;;;;;226.63;211.65;;;-2.70;81.00;;;;;;5060435;28;20087;-75
2024/01/10 11:13:57;;;;;;;108.50;101.53;;;-2.60;81.00;;;;;;5056894;28;20063;-75
2024/01/10 11:16:47;;;;;;;186.82;174.38;;;-2.60;80.40;;;;;;5068734;28;20059;-76
2024/01/10 11:19:31;;;;;;;172.60;161.63;;;-2.50;80.10;;;;;;5064565;28;20039;-76
2024/01/10 11:22:15;;;;;;;176.13;165.02;;;-2.50;80.10;;;;;;5071413;28;20036;-76
2024/01/10 11:24:41;;;;;;;119.28;111.07;;;-2.40;80.50;;;;;;5076056;28;20506;-75
2024/01/10 11:27:14;;;;;;;113.55;106.15;;;-2.40;79.50;;;;;;5052349;28;20091;-75
2024/01/10 11:29:42;;;;;;;135.63;127.18;;;-2.30;80.60;;;;;;5069925;28;20048;-75
2024/01/10 11:32:13;;;;;;;159.48;149.38;;;-2.30;80.60;;;;;;5078514;28;20039;-75
2024/01/10 11:35:11;;;;;;;165.18;154.63;;;-2.20;81.20;;;;;;5084913;28;20036;-75
2024/01/10 11:37:43;;;;;;;290.13;270.00;;;-2.20;80.70;;;;;;5064372;28;20126;-76
2024/01/10 11:40:09;;;;;;;197.05;184.05;;;-2.10;80.70;;;;;;5088836;28;20036;-76
2024/01/10 11:42:42;;;;;;;174.45;163.30;;;-2.10;80.40;;;;;;5074574;28;20029;-76
2024/01/10 11:45:08;;;;;;;271.13;251.38;;;-2.00;80.30;;;;;;5088758;28;20558;-75
2024/01/10 11:47:37;;;;;;;155.20;146.10;;;-2.00;80.30;;;;;;5084192;28;20079;-76
2024/01/10 11:50:04;;;;;;;174.63;163.98;;;-1.90;80.20;;;;;;5092203;28;20051;-77
2024/01/10 11:52:36;;;;;;;158.65;148.98;;;-1.90;80.30;;;;;;5090055;28;20036;-76
2024/01/10 11:55:03;;;;;;;148.35;139.25;;;-1.80;80.50;;;;;;5090999;28;20048;-76
2024/01/10 11:57:32;;;;;;;173.05;162.48;;;-1.80;80.30;;;;;;5075459;28;20399;-76
2024/01/10 12:00:03;;;;;;;197.10;185.25;;;-1.80;80.60;;;;;;5094920;28;20036;-76
2024/01/10 12:02:29;;;;;;;181.75;171.00;;;-1.80;80.40;;;;;;5084886;28;20097;-76
2024/01/10 12:04:55;;;;;;;194.93;182.77;;;-1.70;79.60;;;;;;5064725;28;20422;-76
2024/01/10 12:07:21;;;;;;;107.83;100.83;;;-1.70;79.70;;;;;;5085661;28;20059;-77
2024/01/10 12:09:47;;;;;;;190.47;178.93;;;-1.70;79.90;;;;;;5093050;28;20285;-77
2024/01/10 12:12:14;;;;;;;124.75;116.78;;;-1.60;79.40;;;;;;5068605;28;20079;-77
2024/01/10 12:14:40;;;;;;;204.18;190.70;;;-1.60;79.80;;;;;;5099759;28;20040;-77
2024/01/10 12:17:08;;;;;;;163.57;153.73;;;-1.60;79.80;;;;;;5080762;28;20043;-77